Airfield :
LOGIN :

Register | Disclaimer

   EN    FR    IT 

 










Legend :    VFR   Marginal VFR   IFR   Intensive IFR   Very Intensive IFR
Visi :
Ceiling :
>= 8 km
>= 3000ft
5 to 8 km
1000 to 3000 ft
1500m to 5 km
500 to 1000 ft
800 to 1500m
200 to 500 ft
< 800m
< 200 ft
Symbols :   Thunderstorms  Fog  Heavy snow  Heavy precipitations  Wind > 20 kt
SIGMETs :     Misc.  Thunderstorms  Icing  Turbulence  Mountain Waves  Volcanic Ashes







- Airport Elevation : 6 ft
- IATA code : PSA


LIRP - Galileo Galilei Pisa

CURRENT METAR :
  • 110645Z 19014KT 9999 SCT025 BKN030 14/11 Q0999 TEMPO 22015G30KT

EXPIRED METARs :
  • 110615Z 18013KT 9999 SCT020 BKN025 14/12 Q0999 TEMPO 22015G30KT
  • 110545Z 19016KT 9999 SCT020 BKN030 14/12 Q0999 TEMPO 22015G30KT
  • 110515Z 20011KT 9999 SCT020 BKN030 14/12 Q0999 TEMPO 22015G27KT
  • 110445Z 21011KT 9999 -RA SCT015 BKN030 13/13 Q0999 TEMPO 22015G27KT
  • 110415Z 22015KT 5000 -RA SCT015 BKN025 13/13 Q0999 TEMPO 22015G27KT

TAF TAF LIRP
Valid from the 11 at 06:00 until the 12 at 06:00 UTC


110500Z 1106/1206 22015KT 5000 RA SCT015 BKN030
TEMPO 1106/1124 22015G30KT
BECMG 1112/1114 7000 FEW020 BKN040
PROB40
TEMPO 1121/1206 4000 SHRA FEW010CB BKN025
No reported NOTAMs for that airfield.
2 SIGMETs reported for the Milano FIR (LIMM) :
 
Severe turbulence
LIMM SIGMET 4 VALID 110715/110915 LIIP
LIMM MILANO FIR SEV TURB FCST SE OF LINE N4405 E00731 - N4616 E01339 FL040/180 STNR NC=
Severe icing
LIMM SIGMET 3 VALID 110550/110850 LIIP
LIMM MILANO FIR SEV ICE OBS WI N4555 E00718 - N4413 E00704 - N4446 E01117 - N4549 E01341 - N4616 E01324 - N4655 E01204 - N4555 E00718 FL070/160 STNR NC=



MET'MAP, your aeronautical weather chart ! - Copyright ORBIFLY December 2007 - Disclaimer

ORBIFLY MET'MAP TEAM :

Programming & Development : Alexandra Zaïnal
Concept & Development : Baudouin d'Aumeries
Co-Development & Prog : Marc-Olivier Méhu
Technical & hardware support : Manuel Goepfert

Contact : metmap@orbifly.com




SOURCES & CREDITS :

   NOAA